Portada
METAR-TAF:

METAR-TAF

Aeroports :

Kwajalein, Illes Marshall

latitud: 08-43N, longitud: 167-44E, altitud: 3 m

Observació

L'informe es va fer fa 10 minuts, a les 02:00 UTC
Vent 11 kt del Est
Temperatura 31°C
Humitat 66%
Pressió 1011 hPa
Visibilitat: 16.1 km
Núvols disperses a una alçada de 2400 ft
Núvols disperses a una alçada de 3300 ft

METAR: PKWA 270200Z AUTO 09011KT 10SM SCT024 SCT033 31/24 A2985 RMK AO2 T03140244

Hora: 14:10 (02:10 UTC)

Pronòstic

L'informe es va fer fa 2 hores i 50 minuts, a les 23:20 UTC
Pronòstic vàlid del 27 a les 00 UTC al 27 a les 24 UTC
Vent 15 kt del Est
Visibilitat: 10 km
Escasses núvols a una alçada de 2000 ft
Núvols disperses a una alçada de 3500 ft

TAF: PKWA 262320Z 2700/2724 10015KT P6SM FEW020 SCT035

Observacions i pronòstics meteorològics de més de 4000 aeroports (METAR i TAF).

Les estacions disponibles són els punts grocs i vermells al mapa.

Posi el ratolí al punt desitjat per veure el nom de l'estació.

Feu clic per veure les observacions i els pronòstics meteorològics.

Per canviar el mapa: feu clic els botons verds amb una creu de color negre per apropar; al botó verd amb un guió per allunyar la imatge; o en les fletxes verdes per a mapes adjacents.


METAR-TAF: